Latest Weather Observations for Edinburgh

IDS60801

Issued at 9:05 pm CDT Friday 21 November 2014 (issued every 30 minutes, with the page automatically refreshed every 10 minutes)

About weather observations | Map of weather stations | Latest weather observations for SA | Other Formats
Station Details ID: 023083 Name: EDINBURGH RAAF Lat: -34.71 Lon: 138.62 Height: 16.54 m
Data from the previous 72 hours. | See also: Recent months at Edinburgh
Date/Time
CDT
Temp
°C
App
Temp
°C
Dew
Point
Rel
Hum
%
Delta-T
°C
Wind Press
QNH
hPa
Press
MSL
hPa
Rain
since 9 am
mm
Dir
 
Spd
km/h
Gust
km/h
Spd
kts
Gust
kts
21/09:00pm 23.6 21.4 6.0 32 9.0 SE 7 9 4 5 1010.2 1010.1 0.0
21/08:30pm 24.1 22.0 5.9 31 9.3 SE 6 9 3 5 1010.3 1010.2 0.0
21/08:00pm 24.9 22.5 5.2 28 10.0 S 7 9 4 5 1010.3 1010.2 0.0
21/07:30pm 25.3 22.7 4.4 26 10.5 S 7 11 4 6 1010.2 1010.1 0.0
21/07:00pm 26.3 23.9 4.1 24 11.1 SSW 6 9 3 5 1010.1 1010.0 0.0
21/06:30pm 25.9 23.0 4.4 25 10.8 S 9 13 5 7 1010.0 1009.9 0.0
21/06:00pm 27.0 23.6 5.9 26 11.0 SW 13 19 7 10 1010.2 1010.1 0.0
21/05:30pm 25.9 22.3 4.9 26 10.7 SW 13 19 7 10 1010.2 1010.1 0.0
21/05:00pm 25.6 21.8 5.8 28 10.2 SSW 15 20 8 11 1010.3 1010.2 0.0
21/04:30pm 26.0 21.5 6.1 28 10.3 SW 19 22 10 12 1010.7 1010.6 0.0
21/04:00pm 25.5 21.3 5.7 28 10.2 W 17 26 9 14 1010.8 1010.7 0.0
21/03:30pm 25.4 20.6 5.6 28 10.1 SW 20 24 11 13 1011.0 1010.9 0.0
21/03:00pm 25.4 21.4 5.1 27 10.3 WSW 15 24 8 13 1011.5 1011.4 0.0
21/02:30pm 24.6 20.7 5.4 29 9.7 WSW 15 22 8 12 1011.4 1011.3 0.0
21/02:00pm 23.7 18.3 1.4 23 10.4 W 19 22 10 12 1012.2 1012.1 0.0
21/01:30pm 22.8 19.9 6.6 35 8.3 WSW 11 24 6 13 1012.6 1012.5 0.0
21/01:00pm 22.7 19.0 4.2 30 9.1 SSW 13 20 7 11 1012.9 1012.8 0.0
21/12:30pm 22.4 18.1 7.0 37 7.9 SW 19 24 10 13 1013.3 1013.2 0.0
21/12:00pm 21.3 17.5 6.0 37 7.7 W 15 20 8 11 1013.5 1013.4 0.0
21/11:30am 20.6 17.8 8.6 46 6.3 W 13 20 7 11 1013.6 1013.5 0.0
21/11:00am 20.1 17.1 9.1 49 5.8 WSW 15 20 8 11 1013.9 1013.8 0.0
21/10:30am 19.8 17.3 9.7 52 5.4 W 13 20 7 11 1013.9 1013.8 0.0
21/10:00am 19.2 16.2 9.4 53 5.2 WNW 15 22 8 12 1013.7 1013.6 0.0
21/09:30am 18.5 16.3 9.3 55 4.8 WSW 11 19 6 10 1013.7 1013.6 0.0
21/09:00am 18.1 15.5 9.5 57 4.5 W 13 19 7 10 1013.5 1013.4 3.4
21/08:30am 17.6 15.7 9.0 57 4.5 W 9 17 5 9 1013.4 1013.3 3.4
21/08:00am 17.5 15.9 10.1 62 3.9 WNW 9 15 5 8 1013.3 1013.2 3.4
21/07:30am 15.9 15.9 11.1 73 2.6 WNW 2 9 1 5 1013.1 1013.0 3.4
21/07:00am 14.6 13.2 11.0 79 1.9 W 9 9 5 5 1012.8 1012.7 3.4
21/06:30am 15.4 13.9 10.6 73 2.5 WSW 9 11 5 6 1012.3 1012.2 3.4
21/06:00am 15.9 13.0 10.9 72 2.7 SW 17 24 9 13 1012.5 1012.4 3.4
21/05:30am 16.0 13.4 10.7 71 2.8 SW 15 20 8 11 1012.5 1012.4 3.4
21/05:00am 15.9 13.6 10.4 70 2.9 SSW 13 17 7 9 1011.9 1011.8 3.4
21/04:30am 16.0 13.3 10.5 70 2.9 SSW 15 20 8 11 1011.8 1011.7 3.4
21/04:00am 16.0 13.7 10.5 70 2.9 SSW 13 17 7 9 1011.7 1011.6 3.4
21/03:30am 16.2 14.0 10.9 71 2.8 SSW 13 17 7 9 1012.0 1011.9 3.4
21/03:00am 16.3 13.0 10.8 70 2.9 SSW 19 24 10 13 1011.8 1011.7 3.4
21/02:30am 16.4 13.2 11.3 72 2.8 SSW 19 24 10 13 1011.7 1011.6 3.4
21/02:00am 16.6 13.5 11.7 73 2.7 SSW 19 26 10 14 1011.9 1011.8 3.4
21/01:30am 16.6 13.4 11.9 74 2.6 SSW 20 28 11 15 1012.0 1011.9 3.4
21/01:00am 16.6 13.7 12.8 78 2.1 SSW 20 26 11 14 1012.0 1011.9 3.4
21/12:30am 16.9 13.5 12.6 76 2.4 SSW 22 28 12 15 1012.1 1012.0 3.4
21/12:00am 17.0 14.8 13.3 79 2.1 SSW 17 28 9 15 1012.0 1011.9 3.4
 
Date/Time
CDT
Temp
°C
App
Temp
°C
Dew
Point
Rel
Hum
%
Delta-T
°C
Wind Press
QNH
hPa
Press
MSL
hPa
Rain
since 9 am
mm
Dir
 
Spd
km/h
Gust
km/h
Spd
kts
Gust
kts
20/11:30pm 17.1 14.2 14.0 82 1.8 SW 22 28 12 15 1011.7 1011.6 3.4
20/11:00pm 17.4 14.3 13.5 78 2.2 SW 22 30 12 16 1011.9 1011.8 3.4
20/10:30pm 17.6 13.8 13.7 78 2.2 SW 26 37 14 20 1012.0 1011.9 3.4
20/10:00pm 17.7 13.6 13.8 78 2.2 SW 28 37 15 20 1011.8 1011.7 3.4
20/09:30pm 17.9 14.0 14.4 80 2.0 WSW 28 35 15 19 1011.4 1011.3 3.4
20/09:00pm 18.2 14.7 14.5 79 2.1 WSW 26 33 14 18 1010.9 1010.8 3.4
20/08:30pm 18.1 15.9 14.4 79 2.1 SW 19 26 10 14 1010.5 1010.4 3.4
20/08:00pm 18.3 14.8 14.6 79 2.1 SW 26 35 14 19 1010.2 1010.1 3.4
20/07:30pm 18.4 14.5 14.3 77 2.4 SSW 28 35 15 19 1009.4 1009.3 3.4
20/07:00pm 18.9 14.6 14.4 75 2.6 SSW 30 37 16 20 1008.9 1008.8 3.4
20/06:30pm 20.8 16.9 14.5 67 3.7 SW 28 33 15 18 1008.3 1008.3 3.4
20/06:00pm 21.1 18.4 15.6 71 3.3 SW 24 30 13 16 1008.1 1008.1 3.4
20/05:30pm 21.9 18.7 16.2 70 3.5 SSW 28 35 15 19 1007.5 1007.5 3.4
20/05:00pm 23.3 19.5 16.6 66 4.1 WSW 32 41 17 22 1007.5 1007.5 3.4
20/04:30pm 23.0 19.2 16.8 68 3.8 W 32 41 17 22 1007.3 1007.3 3.4
20/04:00pm 23.8 20.4 17.8 69 3.7 W 32 39 17 21 1006.9 1006.9 3.4
20/03:30pm 24.2 21.7 18.8 72 3.4 WNW 30 41 16 22 1007.0 1007.0 3.4
20/03:00pm 22.6 21.8 19.2 81 2.2 NNW 22 28 12 15 1007.6 1007.6 3.4
20/02:30pm 22.1 20.8 19.1 83 1.9 NNW 24 32 13 17 1008.0 1008.0 3.4
20/02:00pm 21.5 19.5 19.1 86 1.5 NNW 28 37 15 20 1008.1 1008.1 3.4
20/01:30pm 21.0 18.8 18.8 87 1.4 N 28 35 15 19 1008.4 1008.4 3.4
20/01:24pm 20.9 18.5 18.3 85 1.6 N 28 37 15 20 1008.7 1008.6 3.4
20/01:00pm 21.1 19.7 18.7 86 1.5 N 24 32 13 17 1008.9 1008.8 3.0
20/12:53pm 20.8 19.3 18.6 87 1.4 N 24 32 13 17 1008.9 1008.8 3.0
20/12:30pm 20.4 19.4 18.9 91 0.9 N 22 30 12 16 1009.4 1009.3 3.0
20/12:00pm 19.9 18.2 18.2 90 1.1 N 24 30 13 16 1009.6 1009.5 2.8
20/11:30am 20.3 19.4 17.7 85 1.6 N 19 24 10 13 1009.7 1009.6 1.2
20/11:00am 20.7 20.5 17.7 83 1.8 N 15 19 8 10 1009.6 1009.5 0.6
20/10:30am 20.9 21.4 17.5 81 2.1 N 11 15 6 8 1009.5 1009.4 0.6
20/10:00am 20.8 21.3 17.4 81 2.1 NNW 11 15 6 8 1009.8 1009.7 0.6
20/09:30am 20.9 19.5 16.9 78 2.4 NW 20 28 11 15 1010.0 1009.9 0.2
20/09:15am 22.1 18.8 16.1 69 3.6 NW 28 37 15 20 1010.2 1010.1 0.0
20/09:00am 23.3 24.3 15.4 61 4.7 NW 4 7 2 4 1009.8 1009.7 0.0
20/08:30am 23.4 22.3 15.2 60 4.9 W 15 22 8 12 1009.6 1009.5 0.0
20/08:00am 24.1 20.5 14.2 54 5.8 W 26 37 14 20 1009.2 1009.1 0.0
20/07:30am 24.9 20.2 13.1 48 6.9 WNW 30 37 16 20 1008.5 1008.5 0.0
20/07:27am 25.0 20.2 12.9 47 7.0 WNW 30 37 16 20 1008.3 1008.3 0.0
20/07:00am 24.2 21.4 10.1 41 7.8 N 15 19 8 10 1007.6 1007.6 0.0
20/06:30am 23.7 21.5 9.3 40 7.8 N 11 13 6 7 1007.1 1007.1 0.0
20/06:00am 23.9 21.6 9.1 39 8.0 N 11 17 6 9 1006.5 1006.5 0.0
20/05:30am 24.1 22.8 10.0 41 7.8 NE 7 9 4 5 1005.9 1005.9 0.0
20/05:00am 24.9 23.6 10.0 39 8.2 SE 7 13 4 7 1005.8 1005.8 0.0
20/04:30am 24.8 23.0 9.5 38 8.4 NNW 9 15 5 8 1006.4 1006.4 0.0
20/04:00am 25.3 23.0 7.4 32 9.4 N 9 11 5 6 1006.7 1006.7 0.0
20/03:30am 25.2 23.1 3.8 25 10.6 N 4 9 2 5 1006.7 1006.7 0.0
20/03:00am 25.3 21.4 3.3 24 10.8 N 13 20 7 11 1006.5 1006.5 0.0
20/02:30am 26.5 21.4 3.1 22 11.6 NNE 19 22 10 12 1005.9 1005.9 0.0
20/02:00am 27.9 22.2 2.9 20 12.4 NE 22 28 12 15 1005.8 1005.8 0.0
20/01:30am 27.9 22.2 2.9 20 12.4 NE 22 28 12 15 1006.0 1006.0 0.0
20/01:00am 28.0 21.8 2.2 19 12.6 NE 24 30 13 16 1006.3 1006.3 0.0
20/12:30am 28.4 21.9 2.6 19 12.8 NE 26 32 14 17 1006.6 1006.6 0.0
20/12:00am 28.4 22.7 2.6 19 12.8 NE 22 28 12 15 1007.2 1007.2 0.0
 
Date/Time
CDT
Temp
°C
App
Temp
°C
Dew
Point
Rel
Hum
%
Delta-T
°C
Wind Press
QNH
hPa
Press
MSL
hPa
Rain
since 9 am
mm
Dir
 
Spd
km/h
Gust
km/h
Spd
kts
Gust
kts
19/11:30pm 28.1 22.8 3.0 20 12.5 NE 20 24 11 13 1007.3 1007.3 0.0
19/11:00pm 27.2 22.5 3.0 21 12.0 NE 17 20 9 11 1007.7 1007.7 0.0
19/10:30pm 27.1 22.7 2.9 21 11.9 NE 15 19 8 10 1007.9 1007.9 0.0
19/10:00pm 26.1 22.5 2.7 22 11.4 ENE 11 15 6 8 1007.8 1007.8 0.0
19/09:30pm 28.7 24.6 2.1 18 13.1 ENE 13 17 7 9 1007.8 1007.8 0.0
19/09:00pm 29.0 24.5 2.3 18 13.2 ENE 15 17 8 9 1007.7 1007.7 0.0
19/08:30pm 29.9 25.8 2.2 17 13.8 E 13 17 7 9 1007.8 1007.8 0.0
19/08:00pm 30.4 27.0 1.8 16 14.1 E 9 11 5 6 1008.1 1008.1 0.0
19/07:30pm 30.8 26.9 1.2 15 14.5 E 11 15 6 8 1008.3 1008.3 0.0
19/07:00pm 31.1 28.1 0.5 14 14.9 SE 6 7 3 4 1008.9 1008.8 0.0
19/06:30pm 31.4 28.2 0.7 14 15.0 SSW 7 9 4 5 1009.2 1009.1 0.0
19/06:00pm 32.2 27.8 0.3 13 15.6 SW 13 20 7 11 1009.5 1009.4 0.0
19/05:30pm 32.4 27.3 0.5 13 15.6 WSW 17 24 9 13 1009.8 1009.7 0.0
19/05:00pm 32.8 28.1 0.8 13 15.8 WNW 15 24 8 13 1010.1 1010.0 0.0
19/04:30pm 32.6 26.5 0.6 13 15.7 WNW 22 33 12 18 1010.6 1010.5 0.0
19/04:00pm 32.6 25.0 0.6 13 15.7 W 30 41 16 22 1010.8 1010.7 0.0
19/03:30pm 32.8 25.1 -0.3 12 16.0 W 30 39 16 21 1011.2 1011.1 0.0
19/03:00pm 32.3 24.1 0.4 13 15.6 W 33 41 18 22 1011.6 1011.5 0.0
19/02:30pm 33.3 25.4 1.2 13 16.0 W 32 44 17 24 1012.0 1011.9 0.0
19/02:00pm 31.8 24.8 2.0 15 14.9 W 28 39 15 21 1012.5 1012.4 0.0
19/01:30pm 31.3 24.6 1.6 15 14.7 W 26 35 14 19 1013.0 1012.9 0.0
19/01:00pm 30.7 25.0 2.9 17 14.0 W 22 30 12 16 1013.5 1013.4 0.0
19/12:30pm 30.6 23.6 1.9 16 14.2 W 28 39 15 21 1014.0 1013.9 0.0
19/12:00pm 30.9 25.3 1.3 15 14.5 WNW 20 28 11 15 1014.3 1014.2 0.0
19/11:30am 28.6 24.6 2.7 19 12.8 NNW 13 20 7 11 1014.7 1014.6 0.0
19/11:00am 27.9 22.3 3.6 21 12.2 NNW 22 30 12 16 1014.9 1014.8 0.0
19/10:30am 27.2 22.6 3.7 22 11.7 N 17 24 9 13 1015.0 1014.9 0.0
19/10:00am 25.8 21.0 4.9 26 10.6 N 19 24 10 13 1015.9 1015.8 0.0
19/09:30am 24.4 19.6 5.7 30 9.5 NNE 20 26 11 14 1016.0 1015.9 0.0
19/09:00am 22.4 17.6 5.4 33 8.5 NE 20 28 11 15 1016.6 1016.5 0.0
19/08:30am 21.0 18.0 6.2 38 7.4 ENE 11 26 6 14 1016.7 1016.6 0.0
19/08:00am 16.8 15.0 7.2 53 4.8 NNE 6 9 3 5 1016.9 1016.8 0.0
19/07:30am 13.7 12.0 7.5 66 3.0 N 6 7 3 4 1016.8 1016.7 0.0
19/07:00am 11.8 11.1 6.9 72 2.3 CALM 0 6 0 3 1017.0 1016.9 0.0
19/06:30am 10.4 8.4 6.4 76 1.9 N 6 6 3 3 1017.2 1017.1 0.0
19/06:00am 10.0 8.5 6.9 81 1.5 N 4 6 2 3 1017.4 1017.3 0.0
19/05:30am 10.3 7.5 7.0 80 1.6 NNE 11 13 6 7 1017.3 1017.2 0.0
19/05:00am 10.0 7.4 6.2 77 1.8 ENE 9 11 5 6 1017.4 1017.3 0.0
19/04:30am 11.4 10.3 6.9 74 2.1 NNE 2 7 1 4 1017.9 1017.8 0.0
19/04:00am 10.7 10.0 6.8 77 1.8 CALM 0 0 0 0 1018.1 1018.0 0.0
19/03:30am 10.6 9.6 5.4 70 2.4 CALM 0 0 0 0 1018.0 1017.9 0.0
19/03:00am 12.2 11.4 6.7 69 2.6 CALM 0 0 0 0 1018.1 1018.0 0.0
19/02:30am 12.5 10.8 7.4 71 2.5 SSW 6 7 3 4 1018.5 1018.4 0.0
19/02:00am 13.0 12.5 7.9 71 2.5 CALM 0 0 0 0 1018.7 1018.6 0.0
19/01:30am 13.0 10.0 7.5 69 2.7 NE 13 17 7 9 1019.0 1018.9 0.0
19/01:00am 14.4 11.1 7.9 65 3.2 NE 15 17 8 9 1019.2 1019.1 0.0
19/12:30am 14.6 12.1 8.3 66 3.2 NE 11 13 6 7 1019.9 1019.8 0.0
19/12:00am 13.9 12.1 7.2 64 3.3 N 6 6 3 3 1020.4 1020.3 0.0
 
Date/Time
CDT
Temp
°C
App
Temp
°C
Dew
Point
Rel
Hum
%
Delta-T
°C
Wind Press
QNH
hPa
Press
MSL
hPa
Rain
since 9 am
mm
Dir
 
Spd
km/h
Gust
km/h
Spd
kts
Gust
kts
18/11:30pm 16.3 14.8 8.3 59 4.0 ESE 6 9 3 5 1020.6 1020.5 0.0
18/11:00pm 16.3 15.0 9.3 63 3.6 S 6 9 3 5 1020.5 1020.4 0.0
18/10:30pm 15.4 13.3 8.4 63 3.5 SSW 9 11 5 6 1020.5 1020.4 0.0
18/10:00pm 16.7 15.1 8.7 59 4.1 S 7 9 4 5 1020.5 1020.4 0.0
18/09:30pm 17.1 15.1 8.8 58 4.3 S 9 13 5 7 1020.6 1020.5 0.0

Other Formats:

Comma delimited format used in spreadsheet applications
http://www.bom.gov.au/fwo/IDS60801/IDS60801.95676.axf

JavaScript Object Notation format (JSON) in row-major order
http://www.bom.gov.au/fwo/IDS60801/IDS60801.95676.json